Time;durP1;ratioP1;P1;durP2;ratioP2;P2;SDS_P1;SDS_P2;PMS_P1;PMS_P2;Temp;Humidity;BMP_temperature;BMP_pressure;BME280_temperature;BME280_humidity;BME280_pressure;Samples;Min_cycle;Max_cycle;Signal;HPM_P1;HPM_P2
2022/05/02 00:01:42;;;;;;;;;;;;;;;11.92;52.47;101534.66;5047068;28;20300;-80
2022/05/02 00:04:08;;;;;;;;;;;;;;;11.99;52.50;101538.91;5046505;28;19927;-79
2022/05/02 00:06:33;;;;;;;;;;;;;;;12.04;52.53;101531.88;5049653;28;19925;-82
2022/05/02 00:08:58;;;;;;;;;;;;;;;12.11;51.56;101533.53;5040766;28;19920;-82
2022/05/02 00:11:24;;;;;;;;;;;;;;;12.06;52.18;101527.53;5045694;28;19943;-82
2022/05/02 00:13:49;;;;;;;;;;;;;;;11.94;52.82;101534.66;5044620;28;20389;-82
2022/05/02 00:16:14;;;;;;;;;;;;;;;11.99;53.23;101538.03;5042921;28;20081;-82
2022/05/02 00:18:40;;;;;;;;;;;;;;;11.82;53.28;101535.69;5048820;28;19944;-82
2022/05/02 00:21:05;;;;;;;;;;;;;;;11.94;54.13;101539.88;5047301;28;20355;-75
2022/05/02 00:23:30;;;;;;;;;;;;;;;11.92;54.66;101536.41;5041387;28;19970;-75
2022/05/02 00:25:55;;;;;;;;;;;;;;;11.95;54.28;101525.94;5046180;28;20389;-75
2022/05/02 00:28:21;;;;;;;;;;;;;;;11.87;54.62;101533.88;5052949;28;20142;-75
2022/05/02 00:30:46;;;;;;;;;;;;;;;11.81;55.39;101526.16;5043675;28;19925;-82
2022/05/02 00:33:12;;;;;;;;;;;;;;;11.78;54.69;101526.19;5048223;28;19925;-80
2022/05/02 00:35:37;;;;;;;;;;;;;;;11.85;53.88;101521.78;5041125;28;19929;-80
2022/05/02 00:38:03;;;;;;;;;;;;;;;11.82;53.42;101514.88;5046640;28;20039;-80
2022/05/02 00:40:28;;;;;;;;;;;;;;;11.83;54.75;101516.56;5046974;28;19920;-80
2022/05/02 00:42:54;;;;;;;;;;;;;;;11.85;54.84;101511.34;5047536;28;19921;-79
2022/05/02 00:45:19;;;;;;;;;;;;;;;11.88;55.91;101509.56;5047580;28;19929;-78
2022/05/02 00:47:48;;;;;;;;;;;;;;;11.99;55.87;101512.00;5050259;28;19925;-78
2022/05/02 00:50:14;;;;;;;;;;;;;;;11.90;55.58;101510.41;5052386;28;19979;-78
2022/05/02 00:52:39;;;;;;;;;;;;;;;11.84;55.73;101505.28;5050890;28;19921;-78
2022/05/02 00:55:05;;;;;;;;;;;;;;;11.97;55.02;101505.97;5045783;28;19921;-78
2022/05/02 00:57:31;;;;;;;;;;;;;;;11.81;55.70;101500.13;5047079;28;19927;-78
2022/05/02 00:59:56;;;;;;;;;;;;;;;11.77;54.02;101495.81;5046254;28;19924;-78
2022/05/02 01:02:22;;;;;;;;;;;;;;;11.92;53.37;101497.34;5044968;28;20267;-78
2022/05/02 01:04:47;;;;;;;;;;;;;;;11.87;54.28;101502.63;5048375;28;19932;-78
2022/05/02 01:07:12;;;;;;;;;;;;;;;11.89;53.08;101507.84;5045689;28;19933;-78
2022/05/02 01:09:43;;;;;;;;;;;;;;;11.84;53.59;101507.03;5041939;28;19921;-78
2022/05/02 01:12:12;;;;;;;;;;;;;;;11.70;55.26;101504.63;5045821;28;19983;-78
2022/05/02 01:14:38;;;;;;;;;;;;;;;11.73;55.10;101508.94;5047748;28;20421;-78
2022/05/02 01:17:03;;;;;;;;;;;;;;;11.74;56.37;101502.84;5042611;28;19917;-78
2022/05/02 01:19:29;;;;;;;;;;;;;;;11.81;56.87;101502.72;5048218;28;19924;-78
2022/05/02 01:21:54;;;;;;;;;;;;;;;11.81;56.46;101500.13;5045735;28;19921;-78
2022/05/02 01:24:19;;;;;;;;;;;;;;;11.91;56.30;101501.72;5051422;28;19928;-78
2022/05/02 01:26:44;;;;;;;;;;;;;;;11.92;56.17;101502.56;5051232;28;19925;-78
2022/05/02 01:29:10;;;;;;;;;;;;;;;11.83;57.05;101498.34;5060420;28;19978;-82
2022/05/02 01:31:35;;;;;;;;;;;;;;;11.82;57.00;101490.56;5084302;28;19974;-82
2022/05/02 01:34:03;;;;;;;;;;;;;;;11.84;56.85;101483.59;5069409;28;19928;-82
2022/05/02 01:36:28;;;;;;;;;;;;;;;11.84;56.30;101481.00;5054135;28;20332;-82
2022/05/02 01:38:54;;;;;;;;;;;;;;;11.79;55.99;101482.81;5051621;28;19935;-82
2022/05/02 01:41:19;;;;;;;;;;;;;;;11.75;56.51;101475.91;5063809;28;19920;-82
2022/05/02 01:43:45;;;;;;;;;;;;;;;11.70;55.94;101478.59;5067593;28;19962;-82
2022/05/02 01:46:11;;;;;;;;;;;;;;;11.84;56.41;101471.44;5061228;28;19928;-83
2022/05/02 01:48:37;;;;;;;;;;;;;;;11.80;56.46;101471.53;5061769;28;20187;-82
2022/05/02 01:51:02;;;;;;;;;;;;;;;11.76;56.67;101475.03;5065826;28;19920;-82
2022/05/02 01:53:27;;;;;;;;;;;;;;;11.69;57.08;101473.41;5068582;28;19978;-82
2022/05/02 01:55:53;;;;;;;;;;;;;;;11.66;56.65;101469.09;5055118;28;20025;-78
2022/05/02 01:58:18;;;;;;;;;;;;;;;11.68;56.72;101467.34;5065029;28;19912;-78
2022/05/02 02:00:44;;;;;;;;;;;;;;;11.57;56.73;101475.31;5062722;28;19920;-78
2022/05/02 02:03:09;;;;;;;;;;;;;;;11.54;57.32;101467.53;5066272;28;19928;-78
2022/05/02 02:05:50;;;;;;;;;;;;;;;11.65;56.86;101472.59;5066409;28;19932;-78
2022/05/02 02:08:19;;;;;;;;;;;;;;;11.73;56.47;101468.16;5062693;28;20337;-78
2022/05/02 02:10:44;;;;;;;;;;;;;;;11.70;57.72;101465.59;5063704;28;20050;-78
2022/05/02 02:13:13;;;;;;;;;;;;;;;11.50;57.59;101471.06;5066556;28;20007;-78
2022/05/02 02:15:38;;;;;;;;;;;;;;;11.52;57.36;101471.03;5066250;28;19962;-78
2022/05/02 02:18:04;;;;;;;;;;;;;;;11.60;57.68;101469.19;5063904;28;20397;-78
2022/05/02 02:20:30;;;;;;;;;;;;;;;11.69;57.54;101466.47;5064662;28;19920;-75
2022/05/02 02:22:55;;;;;;;;;;;;;;;11.64;57.77;101463.06;5065672;28;19920;-76
2022/05/02 02:25:21;;;;;;;;;;;;;;;11.69;57.50;101465.59;5066645;28;20013;-75
2022/05/02 02:27:46;;;;;;;;;;;;;;;11.67;56.71;101468.22;5059896;28;19929;-79
2022/05/02 02:30:12;;;;;;;;;;;;;;;11.62;56.68;101471.78;5067246;28;21260;-80
2022/05/02 02:32:37;;;;;;;;;;;;;;;11.63;57.45;101470.88;5067301;28;19924;-80
2022/05/02 02:35:02;;;;;;;;;;;;;;;11.51;58.06;101470.19;5068664;28;19921;-78
2022/05/02 02:37:28;;;;;;;;;;;;;;;11.59;58.14;101470.09;5065760;28;19974;-78
2022/05/02 02:39:53;;;;;;;;;;;;;;;11.70;58.42;101465.59;5069068;28;19924;-78
2022/05/02 02:42:18;;;;;;;;;;;;;;;11.74;57.33;101466.41;5051536;28;19921;-78
2022/05/02 02:44:44;;;;;;;;;;;;;;;11.62;57.96;101456.19;5069228;28;19920;-78
2022/05/02 02:47:09;;;;;;;;;;;;;;;11.67;56.30;101457.81;5068433;28;19993;-78
2022/05/02 02:49:34;;;;;;;;;;;;;;;11.61;57.19;101454.44;5070686;28;19923;-78
2022/05/02 02:51:59;;;;;;;;;;;;;;;11.63;56.45;101455.28;5071614;28;19924;-83
2022/05/02 02:54:25;;;;;;;;;;;;;;;11.69;56.44;101450.84;5081220;28;20427;-82
2022/05/02 02:56:50;;;;;;;;;;;;;;;11.72;56.49;101449.94;5070068;28;19916;-80
2022/05/02 02:59:15;;;;;;;;;;;;;;;11.59;57.49;101448.41;5071075;28;19923;-80
2022/05/02 03:01:41;;;;;;;;;;;;;;;11.57;57.50;101451.03;5070135;28;19921;-78
2022/05/02 03:06:50;;;;;;;;;;;;;;;11.64;55.59;101455.25;5061066;28;19931;-75
2022/05/02 03:09:16;;;;;;;;;;;;;;;11.64;57.54;101455.25;5066649;28;20019;-75
2022/05/02 03:11:41;;;;;;;;;;;;;;;11.62;56.63;101444.03;5061622;28;20324;-75
2022/05/02 03:14:07;;;;;;;;;;;;;;;11.55;57.67;101445.00;5066803;28;19963;-75
2022/05/02 03:16:32;;;;;;;;;;;;;;;11.51;57.90;101448.50;5067188;28;19921;-75
2022/05/02 03:18:57;;;;;;;;;;;;;;;11.62;58.16;101441.44;5063899;28;19924;-75
2022/05/02 03:21:22;;;;;;;;;;;;;;;11.55;58.42;101439.78;5062667;28;20313;-82
2022/05/02 03:23:48;;;;;;;;;;;;;;;11.51;57.81;101441.56;5065258;28;19920;-82
2022/05/02 03:26:13;;;;;;;;;;;;;;;11.48;57.21;101433.81;5065272;28;19925;-82
2022/05/02 03:28:38;;;;;;;;;;;;;;;11.61;56.82;101436.22;5064891;28;20281;-82
2022/05/02 03:31:04;;;;;;;;;;;;;;;11.53;56.08;101429.38;5061422;28;20298;-82
2022/05/02 03:33:29;;;;;;;;;;;;;;;11.54;56.98;101433.72;5062478;28;20347;-80
2022/05/02 03:35:54;;;;;;;;;;;;;;;11.53;57.40;101425.94;5065509;28;19927;-79
2022/05/02 03:38:20;;;;;;;;;;;;;;;11.41;57.88;101428.72;5065034;28;20365;-79
2022/05/02 03:40:45;;;;;;;;;;;;;;;11.44;57.60;101418.28;5068316;28;19959;-79
2022/05/02 03:43:10;;;;;;;;;;;;;;;11.49;58.01;101421.66;5066503;28;19960;-79
2022/05/02 03:45:36;;;;;;;;;;;;;;;11.49;57.15;101413.84;5064635;28;20223;-79
2022/05/02 03:48:01;;;;;;;;;;;;;;;11.64;57.23;101424.03;5064093;28;20015;-78
2022/05/02 03:50:27;;;;;;;;;;;;;;;11.61;57.50;101424.09;5060018;28;19960;-78
2022/05/02 03:52:52;;;;;;;;;;;;;;;11.48;59.05;101428.59;5058682;28;19924;-75
2022/05/02 03:55:17;;;;;;;;;;;;;;;11.47;58.98;101429.47;5056798;28;19928;-75
2022/05/02 03:57:43;;;;;;;;;;;;;;;11.53;57.09;101426.78;5065145;28;20019;-74
2022/05/02 04:00:08;;;;;;;;;;;;;;;11.52;57.65;101421.63;5062706;28;20002;-75
2022/05/02 04:02:34;;;;;;;;;;;;;;;11.50;59.05;101428.59;5060353;28;20388;-75
2022/05/02 04:04:59;;;;;;;;;;;;;;;11.48;58.30;101430.34;5064345;28;20426;-75
2022/05/02 04:07:24;;;;;;;;;;;;;;;11.22;59.29;101424.59;5060731;28;19935;-75
2022/05/02 04:09:50;;;;;;;;;;;;;;;11.28;58.38;101421.94;5061268;28;20012;-75
2022/05/02 04:12:15;;;;;;;;;;;;;;;11.27;59.11;101433.19;5055056;28;19966;-78
2022/05/02 04:14:40;;;;;;;;;;;;;;;11.22;59.47;101435.00;5061673;28;19924;-78
2022/05/02 04:17:06;;;;;;;;;;;;;;;11.21;59.75;101428.94;5066408;28;20569;-78
2022/05/02 04:19:31;;;;;;;;;;;;;;;11.18;59.96;101421.16;5063427;28;19924;-78
2022/05/02 04:21:56;;;;;;;;;;;;;;;11.29;59.69;101426.28;5067756;28;19924;-78
2022/05/02 04:24:22;;;;;;;;;;;;;;;11.41;59.05;101424.34;5066499;28;20369;-78
2022/05/02 04:26:47;;;;;;;;;;;;;;;11.63;58.33;101422.31;5062651;28;19963;-78
2022/05/02 04:29:12;;;;;;;;;;;;;;;11.45;58.03;101418.22;5067575;28;19920;-78
2022/05/02 04:31:37;;;;;;;;;;;;;;;11.37;58.40;101419.22;5065126;28;20392;-78
2022/05/02 04:34:03;;;;;;;;;;;;;;;11.42;58.58;101422.63;5064517;28;20464;-79
2022/05/02 04:36:28;;;;;;;;;;;;;;;11.45;58.85;101420.84;5064826;28;19921;-80
2022/05/02 04:38:53;;;;;;;;;;;;;;;11.37;59.04;101425.28;5061202;28;19927;-79
2022/05/02 04:41:19;;;;;;;;;;;;;;;11.61;58.22;101423.22;5060581;28;20365;-78
2022/05/02 04:43:44;;;;;;;;;;;;;;;11.58;57.29;101434.53;5066627;28;19932;-79
2022/05/02 04:46:10;;;;;;;;;;;;;;;11.54;57.99;101425.03;5068252;28;20027;-79
2022/05/02 04:48:35;;;;;;;;;;;;;;;11.32;59.16;101428.84;5068356;28;19917;-80
2022/05/02 04:51:00;;;;;;;;;;;;;;;11.45;59.11;101428.63;5065858;28;20294;-79
2022/05/02 04:53:26;;;;;;;;;;;;;;;11.43;59.46;101433.00;5071593;28;20376;-82
2022/05/02 04:55:51;;;;;;;;;;;;;;;11.47;59.49;101431.25;5073232;28;19924;-78
2022/05/02 04:58:17;;;;;;;;;;;;;;;11.47;59.79;101428.63;5073105;28;19917;-78
2022/05/02 05:00:43;;;;;;;;;;;;;;;11.55;57.85;101438.03;5069680;28;19920;-78
2022/05/02 05:03:08;;;;;;;;;;;;;;;11.52;58.45;101439.81;5066151;28;19929;-78
2022/05/02 05:05:33;;;;;;;;;;;;;;;11.51;58.51;101435.50;5070323;28;20381;-78
2022/05/02 05:07:59;;;;;;;;;;;;;;;11.50;59.69;101434.63;5066897;28;20010;-78
2022/05/02 05:10:24;;;;;;;;;;;;;;;11.44;58.99;101437.31;5067303;28;19932;-79
2022/05/02 05:12:57;;;;;;;;;;;;;;;11.47;59.92;101436.44;5069187;28;19935;-79
2022/05/02 05:18:34;;;;;;;;;;;;;;;11.62;59.19;101448.38;5071100;28;20412;-75
2022/05/02 05:21:17;;;;;;;;;;;;;;;11.48;59.92;101438.13;5068644;28;19924;-82
2022/05/02 05:24:01;;;;;;;;;;;;;;;11.39;58.82;101443.47;5068612;28;20377;-83
2022/05/02 05:26:30;;;;;;;;;;;;;;;11.63;57.57;101434.44;5064887;28;19933;-78
2022/05/02 05:29:10;;;;;;;;;;;;;;;11.64;57.80;101438.78;5072094;28;19940;-80
2022/05/02 05:31:39;;;;;;;;;;;;;;;11.85;57.61;101435.88;5067713;28;20385;-79
2022/05/02 05:34:06;;;;;;;;;;;;;;;11.79;57.32;101442.03;5066012;28;19920;-79
2022/05/02 05:36:50;;;;;;;;;;;;;;;11.83;56.73;101440.25;5067840;28;20358;-74
2022/05/02 05:39:29;;;;;;;;;;;;;;;11.76;56.59;101438.59;5066420;28;19928;-79
2022/05/02 05:42:13;;;;;;;;;;;;;;;11.70;56.76;101441.31;5071208;28;20304;-82
2022/05/02 05:44:56;;;;;;;;;;;;;;;11.73;57.26;101444.72;5072729;28;19935;-80
2022/05/02 05:47:28;;;;;;;;;;;;;;;11.73;57.45;101444.72;5087355;28;19977;-80
2022/05/02 05:50:13;;;;;;;;;;;;;;;11.68;57.23;101445.69;5073268;28;20369;-82
2022/05/02 05:52:57;;;;;;;;;;;;;;;11.73;56.84;101449.06;5063638;28;20081;-82
2022/05/02 05:55:43;;;;;;;;;;;;;;;11.67;56.59;101441.34;5065640;28;19923;-82
2022/05/02 05:58:11;;;;;;;;;;;;;;;11.59;57.33;101438.00;5067037;28;19928;-75
2022/05/02 06:00:42;;;;;;;;;;;;;;;11.56;59.02;101444.13;5069062;28;19924;-74
2022/05/02 06:03:13;;;;;;;;;;;;;;;11.73;58.44;101442.13;5081914;28;20433;-74
2022/05/02 06:05:40;;;;;;;;;;;;;;;11.64;57.79;101446.59;5063790;28;19921;-74
2022/05/02 06:08:10;;;;;;;;;;;;;;;11.71;57.63;101440.44;5057922;28;20407;-75
2022/05/02 06:10:36;;;;;;;;;;;;;;;11.68;56.20;101445.69;5068720;28;20011;-83
2022/05/02 06:13:02;;;;;;;;;;;;;;;11.91;55.67;101440.97;5067465;28;20015;-82
2022/05/02 06:18:29;;;;;;;;;;;;;;;11.87;57.18;101444.50;5062016;28;19926;-82
2022/05/02 06:20:55;;;;;;;;;;;;;;;11.67;56.81;101444.81;5060729;28;19929;-82
2022/05/02 06:23:22;;;;;;;;;;;;;;;11.64;56.50;101444.84;5063595;28;20293;-78
2022/05/02 06:25:52;;;;;;;;;;;;;;;11.69;56.90;101444.78;5067613;28;19916;-78
2022/05/02 06:28:19;;;;;;;;;;;;;;;11.97;56.01;101443.47;5061059;28;19928;-78
2022/05/02 06:30:48;;;;;;;;;;;;;;;11.81;55.84;101444.59;5064979;28;19932;-78
2022/05/02 06:33:14;;;;;;;;;;;;;;;11.79;55.84;101446.38;5060461;28;20004;-78
2022/05/02 06:35:51;;;;;;;;;;;;;;;11.70;55.68;101444.75;5061022;28;20018;-74
2022/05/02 06:38:37;;;;;;;;;;;;;;;11.80;56.39;101448.09;5061371;28;19931;-75
2022/05/02 06:41:08;;;;;;;;;;;;;;;11.90;55.70;101454.88;5064476;28;19916;-79
2022/05/02 06:43:46;;;;;;;;;;;;;;;11.76;56.64;101444.69;5068409;28;20384;-79
2022/05/02 06:46:18;;;;;;;;;;;;;;;11.82;56.51;101446.31;5069470;28;19920;-79
2022/05/02 06:48:49;;;;;;;;;;;;;;;11.89;56.88;101447.97;5066649;28;19921;-79
2022/05/02 06:51:35;;;;;;;;;;;;;;;11.97;57.15;101456.50;5061875;28;19960;-82
2022/05/02 06:54:03;;;;;;;;;;;;;;;12.03;58.08;101449.47;5058164;28;19916;-82
2022/05/02 06:56:50;;;;;;;;;;;;;;;12.02;57.82;101452.94;5063819;28;19966;-78
2022/05/02 06:59:16;;;;;;;;;;;;;;;11.96;56.65;101452.16;5064983;28;19960;-82
2022/05/02 07:01:50;;;;;;;;;;;;;;;11.98;57.23;101448.66;5065636;28;20013;-82
2022/05/02 07:04:25;;;;;;;;;;;;;;;11.95;58.37;101445.22;5063780;28;19923;-79
2022/05/02 07:06:50;;;;;;;;;;;;;;;11.95;57.45;101451.31;5062654;28;19932;-79
2022/05/02 07:09:30;;;;;;;;;;;;;;;12.04;57.79;101448.56;5062155;28;19920;-79
2022/05/02 07:12:02;;;;;;;;;;;;;;;12.10;57.29;101448.47;5066572;28;19920;-80
2022/05/02 07:14:52;;;;;;;;;;;;;;;12.06;57.73;101443.34;5065225;28;19925;-79
2022/05/02 07:17:35;;;;;;;;;;;;;;;12.14;58.73;101449.28;5066395;28;19925;-79
2022/05/02 07:20:01;;;;;;;;;;;;;;;12.01;58.81;101445.13;5065479;28;19917;-79
2022/05/02 07:22:55;;;;;;;;;;;;;;;12.02;59.89;101449.47;5062833;28;19931;-79
2022/05/02 07:25:21;;;;;;;;;;;;;;;12.12;57.66;101440.63;5022895;28;19932;-79
2022/05/02 07:27:56;;;;;;;;;;;;;;;12.09;58.23;101438.94;5058776;28;19950;-79
2022/05/02 07:30:24;;;;;;;;;;;;;;;12.20;56.65;101438.75;5063172;28;20316;-79
2022/05/02 07:32:55;;;;;;;;;;;;;;;12.23;56.63;101438.69;5060330;28;20565;-79
2022/05/02 07:35:21;;;;;;;;;;;;;;;12.07;58.23;101434.63;5062341;28;19943;-79
2022/05/02 07:37:47;;;;;;;;;;;;;;;12.08;58.21;101442.41;5065382;28;20263;-79
2022/05/02 07:40:14;;;;;;;;;;;;;;;12.21;57.66;101444.81;5062853;28;20013;-82
2022/05/02 07:42:40;;;;;;;;;;;;;;;12.20;57.56;101441.34;5059313;28;19929;-74
2022/05/02 07:45:10;;;;;;;;;;;;;;;12.27;56.27;101440.38;5061444;28;19935;-74
2022/05/02 07:47:35;;;;;;;;;;;;;;;12.26;56.29;101440.38;5068123;28;19943;-79
2022/05/02 07:50:02;;;;;;;;;;;;;;;12.06;56.56;101445.94;5065936;28;20027;-82
2022/05/02 07:52:28;;;;;;;;;;;;;;;12.22;55.67;101433.50;5067609;28;19923;-82
2022/05/02 07:54:55;;;;;;;;;;;;;;;12.19;56.21;101438.75;5065025;28;19925;-82
2022/05/02 07:57:21;;;;;;;;;;;;;;;12.14;57.07;101431.03;5066044;28;20698;-82
2022/05/02 07:59:50;;;;;;;;;;;;;;;12.31;55.59;101436.81;5063822;28;19924;-82
2022/05/02 08:02:18;;;;;;;;;;;;;;;12.39;55.26;101431.47;5062823;28;19928;-82
2022/05/02 08:04:44;;;;;;;;;;;;;;;12.35;54.23;101430.66;5061256;28;19929;-82
2022/05/02 08:07:12;;;;;;;;;;;;;;;12.36;54.15;101434.16;5062135;28;19932;-82
2022/05/02 08:09:56;;;;;;;;;;;;;;;12.35;54.64;101427.19;5059480;28;19925;-79
2022/05/02 08:12:30;;;;;;;;;;;;;;;12.32;55.56;101429.88;5063171;28;19928;-79
2022/05/02 08:15:07;;;;;;;;;;;;;;;12.37;55.14;101417.59;5075009;28;20153;-79
2022/05/02 08:17:55;;;;;;;;;;;;;;;12.25;56.85;101413.47;5065041;28;19927;-79
2022/05/02 08:20:39;;;;;;;;;;;;;;;12.46;55.61;101420.03;5055780;28;19928;-79
2022/05/02 08:29:00;;;;;;;;;;;;;;;12.47;54.96;101416.56;5067020;28;20013;-79
2022/05/02 08:31:34;;;;;;;;;;;;;;;12.45;56.12;101419.19;5065850;28;19920;-79
2022/05/02 08:34:08;;;;;;;;;;;;;;;12.58;55.84;101417.25;5068818;28;20378;-79
2022/05/02 08:36:39;;;;;;;;;;;;;;;12.63;55.28;101412.81;5065892;28;19949;-79
2022/05/02 08:39:05;;;;;;;;;;;;;;;12.68;53.96;101416.19;5068001;28;19932;-82
2022/05/02 08:41:32;;;;;;;;;;;;;;;12.71;53.71;101418.75;5064795;28;20054;-82
2022/05/02 08:44:04;;;;;;;;;;;;;;;12.69;53.09;101419.66;5068887;28;20604;-82
2022/05/02 08:46:44;;;;;;;;;;;;;;;12.77;52.92;101409.94;5065736;28;19925;-82
2022/05/02 08:49:37;;;;;;;;;;;;;;;12.69;54.20;101411.84;5071650;28;20341;-82
2022/05/02 08:52:02;;;;;;;;;;;;;;;12.73;53.18;101403.91;5067382;28;20390;-82
2022/05/02 08:54:34;;;;;;;;;;;;;;;12.78;54.61;101414.28;5071348;28;19928;-82
2022/05/02 08:57:17;;;;;;;;;;;;;;;12.80;54.19;101412.50;5067193;28;19963;-82
2022/05/02 09:00:04;;;;;;;;;;;;;;;12.80;52.63;101407.28;5065160;28;19924;-82
2022/05/02 09:02:48;;;;;;;;;;;;;;;12.93;52.31;101406.97;5063721;28;19921;-82
2022/05/02 09:05:14;;;;;;;;;;;;;;;12.85;52.49;101408.03;5066492;28;19969;-75
2022/05/02 09:07:45;;;;;;;;;;;;;;;12.93;53.53;101403.50;5067508;28;20015;-75
2022/05/02 09:10:20;;;;;;;;;;;;;;;12.94;52.28;101402.63;5066355;28;19927;-78
2022/05/02 09:12:46;;;;;;;;;;;;;;;12.91;51.32;101397.47;5064841;28;20568;-78
2022/05/02 09:15:17;;;;;;;;;;;;;;;12.95;50.81;101392.19;5068556;28;19928;-78
2022/05/02 09:17:45;;;;;;;;;;;;;;;12.95;51.22;101393.94;5063054;28;20488;-78
2022/05/02 09:20:22;;;;;;;;;;;;;;;13.07;50.91;101391.94;5067499;28;19928;-78
2022/05/02 09:22:58;;;;;;;;;;;;;;;13.04;52.38;101402.44;5062075;28;19942;-78
2022/05/02 09:25:33;;;;;;;;;;;;;;;13.10;50.91;101391.84;5068564;28;19924;-79
2022/05/02 09:28:09;;;;;;;;;;;;;;;13.11;50.21;101390.09;5065975;28;19928;-78
2022/05/02 09:31:00;;;;;;;;;;;;;;;13.07;52.16;101394.53;5067203;28;19921;-78
2022/05/02 09:33:30;;;;;;;;;;;;;;;13.08;51.33;101390.16;5063564;28;19956;-82
2022/05/02 09:35:59;;;;;;;;;;;;;;;13.21;51.18;101387.25;5068451;28;19928;-82
2022/05/02 09:38:25;;;;;;;;;;;;;;;13.15;53.57;101397.81;5068359;28;19920;-82
2022/05/02 09:41:00;;;;;;;;;;;;;;;13.15;52.50;101386.53;5065179;28;19970;-82
2022/05/02 09:49:38;;;;;;;;;;;;;;;13.26;51.72;101378.44;5057097;28;20274;-74
2022/05/02 09:52:06;;;;;;;;;;;;;;;13.39;51.32;101369.47;5065570;28;19928;-75
2022/05/02 09:57:35;;;;;;;;;;;;;;;13.31;51.41;101377.47;5063348;28;20416;-78
2022/05/02 10:03:17;;;;;;;;;;;;;;;13.34;52.39;101372.19;5019181;28;19922;-78
2022/05/02 10:05:48;;;;;;;;;;;;;;;13.36;51.40;101367.78;5059938;28;20447;-79
2022/05/02 10:08:14;;;;;;;;;;;;;;;13.35;52.19;101367.81;5064751;28;19931;-79
2022/05/02 10:10:52;;;;;;;;;;;;;;;13.36;52.11;101367.78;5064595;28;19921;-79
2022/05/02 10:13:30;;;;;;;;;;;;;;;13.42;50.84;101367.66;5060018;28;19925;-79
2022/05/02 10:16:10;;;;;;;;;;;;;;;13.42;51.59;101364.19;5067854;28;19920;-79
2022/05/02 10:18:54;;;;;;;;;;;;;;;13.38;52.15;101358.16;5064170;28;19924;-79
2022/05/02 10:21:29;;;;;;;;;;;;;;;13.40;51.51;101364.22;5053277;28;19924;-78
2022/05/02 10:24:04;;;;;;;;;;;;;;;13.45;51.78;101358.88;5063611;28;20419;-78
2022/05/02 10:26:48;;;;;;;;;;;;;;;13.46;52.00;101356.22;5063194;28;19968;-78
2022/05/02 10:29:22;;;;;;;;;;;;;;;13.46;53.35;101358.84;5062822;28;19970;-79
2022/05/02 10:31:50;;;;;;;;;;;;;;;13.47;52.46;101357.09;5059017;28;19931;-79
2022/05/02 10:34:17;;;;;;;;;;;;;;;13.57;50.60;101350.78;5061781;28;20388;-80
2022/05/02 10:36:45;;;;;;;;;;;;;;;13.70;49.75;101349.63;5066755;28;19956;-82
2022/05/02 10:39:19;;;;;;;;;;;;;;;13.60;50.54;101343.72;5052304;28;20352;-78
2022/05/02 10:41:47;;;;;;;;;;;;;;;13.63;50.05;101337.56;5044714;28;19931;-75
2022/05/02 10:44:14;;;;;;;;;;;;;;;13.68;50.19;101341.81;5038268;28;19932;-74
2022/05/02 10:46:42;;;;;;;;;;;;;;;13.74;50.99;101336.44;5040915;28;19921;-82
2022/05/02 10:49:13;;;;;;;;;;;;;;;13.74;50.90;101333.84;5034700;28;19925;-77
2022/05/02 10:51:40;;;;;;;;;;;;;;;13.83;50.26;101337.09;5042359;28;20007;-82
2022/05/02 10:54:12;;;;;;;;;;;;;;;13.87;50.17;101333.53;5044376;28;19924;-75
2022/05/02 10:56:40;;;;;;;;;;;;;;;13.89;50.01;101327.34;5041374;28;19935;-77
2022/05/02 10:59:08;;;;;;;;;;;;;;;13.87;50.78;101325.69;5039811;28;20042;-78
2022/05/02 11:01:36;;;;;;;;;;;;;;;13.86;50.91;101329.19;5045717;28;19908;-78
2022/05/02 11:04:01;;;;;;;;;;;;;;;13.83;51.31;101326.66;5039730;28;19925;-78
2022/05/02 11:06:43;;;;;;;;;;;;;;;13.88;51.86;101327.41;5041539;28;20086;-78
2022/05/02 11:09:12;;;;;;;;;;;;;;;13.87;52.07;101323.06;5041520;28;19968;-78
2022/05/02 11:11:48;;;;;;;;;;;;;;;13.91;51.46;101316.88;5044913;28;20412;-78
2022/05/02 11:14:29;;;;;;;;;;;;;;;13.93;52.62;101317.69;5041144;28;19949;-78
2022/05/02 11:16:58;;;;;;;;;;;;;;;13.97;50.75;101308.88;5042413;28;20365;-78
2022/05/02 11:22:35;;;;;;;;;;;;;;;14.04;50.60;101305.19;5040823;28;19932;-78
2022/05/02 11:25:06;;;;;;;;;;;;;;;14.08;49.73;101297.25;5038085;28;19929;-78
2022/05/02 11:27:50;;;;;;;;;;;;;;;14.18;49.63;101298.72;5038466;28;20016;-78
2022/05/02 11:30:19;;;;;;;;;;;;;;;14.17;49.40;101286.56;5041494;28;19928;-78
2022/05/02 11:33:03;;;;;;;;;;;;;;;14.26;49.73;101295.91;5041117;28;19971;-78
2022/05/02 11:35:33;;;;;;;;;;;;;;;14.23;48.75;101291.59;5042610;28;19975;-78
2022/05/02 11:38:10;;;;;;;;;;;;;;;14.28;49.63;101294.09;5043920;28;19963;-78
2022/05/02 11:40:45;;;;;;;;;;;;;;;14.18;50.79;101287.38;5039762;28;20293;-78
2022/05/02 11:43:14;;;;;;;;;;;;;;;14.36;50.62;101288.63;5047325;28;20444;-78
2022/05/02 11:45:43;;;;;;;;;;;;;;;14.31;49.42;101281.81;5045887;28;19921;-78
2022/05/02 11:48:21;;;;;;;;;;;;;;;14.30;50.22;101280.06;5043712;28;19929;-78
2022/05/02 11:50:47;;;;;;;;;;;;;;;14.41;50.00;101287.63;5040607;28;19978;-78
2022/05/02 11:53:14;;;;;;;;;;;;;;;14.39;50.27;101276.34;5047035;28;19925;-78
2022/05/02 11:55:41;;;;;;;;;;;;;;;14.43;49.20;101279.72;5047768;28;20274;-78
2022/05/02 11:58:26;;;;;;;;;;;;;;;14.45;49.72;101281.41;5047893;28;19965;-78
2022/05/02 12:00:57;;;;;;;;;;;;;;;14.54;48.50;101269.81;5046773;28;19924;-78
2022/05/02 12:03:24;;;;;;;;;;;;;;;14.50;48.63;101274.25;5044766;28;19932;-78
2022/05/02 12:05:53;;;;;;;;;;;;;;;14.49;49.04;101271.72;5051500;28;19924;-74
2022/05/02 12:08:25;;;;;;;;;;;;;;;14.57;48.42;101275.81;5044993;28;19929;-78
2022/05/02 12:11:02;;;;;;;;;;;;;;;14.50;50.00;101270.81;5048998;28;19929;-78
2022/05/02 12:13:32;;;;;;;;;;;;;;;14.49;50.44;101266.47;5046101;28;19929;-78
2022/05/02 12:16:01;;;;;;;;;;;;;;;14.51;49.11;101273.38;5048770;28;20366;-78
2022/05/02 12:18:45;;;;;;;;;;;;;;;14.53;49.17;101266.34;5047803;28;19929;-78
2022/05/02 12:21:15;;;;;;;;;;;;;;;14.61;49.38;101266.13;5045372;28;20424;-78
2022/05/02 12:23:41;;;;;;;;;;;;;;;14.56;48.85;101260.19;5047748;28;19943;-78
2022/05/02 12:26:12;;;;;;;;;;;;;;;14.66;47.89;101257.25;5047264;28;20377;-78
2022/05/02 12:28:40;;;;;;;;;;;;;;;14.56;50.18;101252.34;5046768;28;20027;-78
2022/05/02 12:31:07;;;;;;;;;;;;;;;14.67;47.25;101261.56;5045159;28;20511;-74
2022/05/02 12:33:34;;;;;;;;;;;;;;;14.78;46.98;101253.44;5044414;28;19966;-79
2022/05/02 12:36:00;;;;;;;;;;;;;;;14.79;46.61;101258.63;5049834;28;20054;-79
2022/05/02 12:38:28;;;;;;;;;;;;;;;14.72;47.28;101248.34;5049450;28;20031;-77
2022/05/02 12:41:01;;;;;;;;;;;;;;;14.80;45.87;101244.63;5043868;28;19925;-78
2022/05/02 12:43:29;;;;;;;;;;;;;;;14.93;46.66;101245.09;5050159;28;19962;-78
2022/05/02 12:45:55;;;;;;;;;;;;;;;14.96;46.41;101247.63;5048925;28;19925;-78
2022/05/02 12:48:28;;;;;;;;;;;;;;;14.95;45.67;101243.28;5046612;28;20020;-79
2022/05/02 12:50:54;;;;;;;;;;;;;;;14.96;48.94;101244.16;5045666;28;19933;-79
2022/05/02 12:56:05;;;;;;;;;;;;;;;14.86;48.13;101233.13;5047908;28;20672;-79
2022/05/02 13:01:43;;;;;;;;;;;;;;;14.90;49.74;101239.09;5025364;28;20386;-79
2022/05/02 13:04:16;;;;;;;;;;;;;;;15.06;47.17;101228.13;5021916;28;19936;-78
2022/05/02 13:06:42;;;;;;;;;;;;;;;15.01;46.40;101219.56;5033865;28;19929;-78
2022/05/02 13:09:08;;;;;;;;;;;;;;;15.06;47.13;101220.28;5046038;28;19936;-78
2022/05/02 13:11:38;;;;;;;;;;;;;;;14.97;48.09;101219.72;5044435;28;19924;-82
2022/05/02 13:14:04;;;;;;;;;;;;;;;15.27;45.85;101214.31;5061845;28;20281;-74
2022/05/02 13:16:33;;;;;;;;;;;;;;;15.27;45.69;101213.50;5043519;28;19932;-82
2022/05/02 13:19:03;;;;;;;;;;;;;;;15.26;45.64;101206.53;5040608;28;20334;-82
2022/05/02 13:21:29;;;;;;;;;;;;;;;15.27;45.42;101201.22;5047380;28;19974;-82
2022/05/02 13:24:01;;;;;;;;;;;;;;;15.23;46.18;101199.66;5046801;28;20087;-82